Time;durP1;ratioP1;P1;durP2;ratioP2;P2;SDS_P1;SDS_P2;PMS_P1;PMS_P2;Temp;Humidity;BMP_temperature;BMP_pressure;BME280_temperature;BME280_humidity;BME280_pressure;Samples;Min_cycle;Max_cycle;Signal;HPM_P1;HPM_P2
2022/11/11 00:00:21;;;;;;;12.88;3.97;;;;;;;11.22;84.21;101607.50;2039666;29;20040;-72
2022/11/11 00:01:47;;;;;;;7.63;3.20;;;;;;;11.22;83.84;101601.31;2039562;29;20526;-72
2022/11/11 00:03:10;;;;;;;10.63;3.83;;;;;;;11.24;84.28;101604.56;2039673;29;20673;-72
2022/11/11 00:04:31;;;;;;;11.65;4.20;;;;;;;11.23;83.85;101608.34;2039520;29;20047;-72
2022/11/11 00:05:52;;;;;;;11.27;3.70;;;;;;;11.24;83.83;101615.34;2039580;29;20043;-72
2022/11/11 00:07:14;;;;;;;11.57;3.80;;;;;;;11.24;83.83;101624.22;2038986;29;20035;-72
2022/11/11 00:08:40;;;;;;;7.78;3.33;;;;;;;11.23;84.10;101619.94;2039286;29;20050;-72
2022/11/11 00:10:04;;;;;;;7.30;3.75;;;;;;;11.22;83.61;101612.91;2038903;29;20031;-72
2022/11/11 00:11:29;;;;;;;12.05;3.83;;;;;;;11.23;83.73;101619.13;2039365;29;20031;-72
2022/11/11 00:12:50;;;;;;;9.73;3.75;;;;;;;11.24;83.80;101616.16;2038960;29;20035;-72
2022/11/11 00:14:14;;;;;;;8.50;3.70;;;;;;;11.25;83.71;101625.84;2036370;29;20047;-71
2022/11/11 00:15:40;;;;;;;12.98;4.40;;;;;;;11.22;84.01;101617.47;2039197;29;20032;-71
2022/11/11 00:25:48;;;;;;;10.77;4.03;;;;;;;11.25;83.79;101633.91;2037553;29;20047;-71
2022/11/11 00:27:11;;;;;;;9.25;3.83;;;;;;;11.26;84.01;101637.44;2042787;29;20483;-70
2022/11/11 00:28:35;;;;;;;8.70;3.67;;;;;;;11.26;83.86;101630.19;2042177;29;20043;-70
2022/11/11 00:29:56;;;;;;;14.70;4.63;;;;;;;11.22;83.60;101634.44;2040211;29;20043;-71
2022/11/11 00:31:17;;;;;;;11.65;4.00;;;;;;;11.18;83.77;101630.63;2040234;29;20067;-71
2022/11/11 00:32:38;;;;;;;12.82;3.70;;;;;;;11.16;83.73;101635.47;2040221;29;20418;-72
2022/11/11 00:34:04;;;;;;;8.57;3.60;;;;;;;11.16;84.13;101640.88;2040018;29;20551;-74
2022/11/11 00:37:07;;;;;;;10.20;3.80;;;;;;;11.22;83.87;101649.78;2039877;29;20035;-71
2022/11/11 00:38:45;;;;;;;9.82;3.88;;;;;;;11.23;83.78;101652.22;2039900;29;20070;-73
2022/11/11 00:40:08;;;;;;;10.45;3.60;;;;;;;11.25;83.85;101650.06;2039865;29;20523;-71
2022/11/11 00:41:32;;;;;;;11.48;4.20;;;;;;;11.27;84.05;101647.94;2038769;29;20606;-73
2022/11/11 00:42:56;;;;;;;9.25;3.30;;;;;;;11.30;83.85;101646.63;2034194;29;20388;-72
2022/11/11 00:44:20;;;;;;;11.05;3.42;;;;;;;11.29;83.90;101640.44;2037722;29;20051;-72
2022/11/11 00:45:44;;;;;;;10.65;3.67;;;;;;;11.30;84.01;101647.44;2040109;29;20051;-72
2022/11/11 00:52:12;;;;;;;6.05;3.10;;;;;;;11.34;83.46;101627.00;2041111;29;20055;-71
2022/11/11 00:53:35;;;;;;;9.45;3.22;;;;;;;11.34;83.64;101626.19;2041702;29;20047;-72
2022/11/11 00:54:58;;;;;;;14.73;3.30;;;;;;;11.38;83.17;101616.56;2041482;29;20047;-72
2022/11/11 00:56:20;;;;;;;4.30;2.83;;;;;;;11.40;83.31;101621.66;2040369;29;20404;-72
2022/11/11 00:57:40;;;;;;;7.90;3.38;;;;;;;11.40;83.10;101618.97;2040996;29;20046;-71
2022/11/11 00:59:01;;;;;;;5.32;2.90;;;;;;;11.41;82.95;101610.63;2035550;29;20051;-71
2022/11/11 01:00:24;;;;;;;8.05;3.20;;;;;;;11.43;82.96;101615.75;2041206;29;20515;-71
2022/11/11 01:01:48;;;;;;;5.07;2.80;;;;;;;11.43;82.85;101615.75;2040989;29;20124;-71
2022/11/11 01:03:08;;;;;;;12.63;3.50;;;;;;;11.39;82.85;101618.16;2032862;29;20516;-71
2022/11/11 01:04:32;;;;;;;8.50;2.85;;;;;;;11.39;82.80;101612.78;2038111;29;20047;-71
2022/11/11 01:05:53;;;;;;;10.13;3.05;;;;;;;11.40;82.79;101616.28;2040794;29;20055;-71
2022/11/11 01:07:19;;;;;;;7.65;2.88;;;;;;;11.42;82.93;101606.06;2040942;29;20047;-71
2022/11/11 01:08:43;;;;;;;11.05;2.63;;;;;;;11.41;82.95;101601.75;2041434;29;20510;-71
2022/11/11 01:10:04;;;;;;;8.45;2.90;;;;;;;11.38;82.79;101592.31;2040859;29;20047;-70
2022/11/11 01:11:25;;;;;;;8.80;2.60;;;;;;;11.41;83.03;101599.03;2038958;29;20096;-71
2022/11/11 01:12:46;;;;;;;10.73;3.13;;;;;;;11.40;83.07;101586.66;2040569;29;20032;-70
2022/11/11 01:14:07;;;;;;;9.55;2.83;;;;;;;11.42;83.08;101587.22;2039913;29;20047;-70
2022/11/11 01:15:31;;;;;;;5.63;2.90;;;;;;;11.45;82.88;101584.81;2042260;29;20519;-70
2022/11/11 01:16:52;;;;;;;9.32;2.83;;;;;;;11.48;83.02;101596.97;2039878;29;20043;-70
2022/11/11 01:18:14;;;;;;;7.88;2.80;;;;;;;11.50;82.96;101600.19;2034485;29;20036;-71
2022/11/11 01:19:40;;;;;;;7.72;2.92;;;;;;;11.53;83.09;101594.28;2039901;29;20153;-72
2022/11/11 01:21:05;;;;;;;5.30;2.45;;;;;;;11.53;82.93;101591.59;2040374;29;20043;-72
2022/11/11 01:22:27;;;;;;;7.47;2.78;;;;;;;11.53;82.50;101586.19;2040422;29;20032;-72
2022/11/11 01:23:49;;;;;;;9.70;3.15;;;;;;;11.54;82.62;101588.66;2041265;29;20047;-72
2022/11/11 01:25:12;;;;;;;10.82;3.15;;;;;;;11.54;82.83;101580.56;2040906;29;20503;-72
2022/11/11 01:26:34;;;;;;;11.57;2.83;;;;;;;11.55;82.85;101581.38;2039745;29;20031;-71
2022/11/11 01:28:01;;;;;;;8.48;2.75;;;;;;;11.57;82.82;101581.94;2038506;29;20401;-72
2022/11/11 01:29:21;;;;;;;7.60;2.75;;;;;;;11.58;82.81;101575.47;2038673;29;20043;-72
2022/11/11 01:30:43;;;;;;;9.18;3.03;;;;;;;11.57;82.74;101579.25;2040949;29;20043;-72
2022/11/11 01:32:04;;;;;;;7.18;2.80;;;;;;;11.56;82.55;101578.41;2041359;29;20036;-72
2022/11/11 01:33:26;;;;;;;6.50;2.60;;;;;;;11.58;82.46;101583.56;2041431;29;20499;-72
2022/11/11 01:34:47;;;;;;;5.32;2.60;;;;;;;11.60;82.28;101581.41;2041436;29;20038;-72
2022/11/11 01:36:19;;;;;;;4.85;2.60;;;;;;;11.61;82.29;101572.25;2041237;29;20133;-72
2022/11/11 01:37:40;;;;;;;8.52;3.15;;;;;;;11.60;82.44;101573.31;2042942;29;20048;-72
2022/11/11 01:39:01;;;;;;;10.65;2.88;;;;;;;11.60;82.16;101581.41;2042854;29;20035;-71
2022/11/11 01:40:25;;;;;;;11.25;2.92;;;;;;;11.60;82.10;101570.63;2042108;29;20415;-72
2022/11/11 01:41:45;;;;;;;6.30;2.20;;;;;;;11.63;82.31;101571.97;2041418;29;20039;-72
2022/11/11 01:43:11;;;;;;;9.70;2.58;;;;;;;11.63;82.25;101577.38;2042397;29;20047;-71
2022/11/11 01:44:49;;;;;;;9.18;2.30;;;;;;;11.63;82.20;101583.56;2041887;29;20054;-72
2022/11/11 01:46:35;;;;;;;6.20;2.15;;;;;;;11.64;82.27;101581.72;2042498;29;20042;-72
2022/11/11 01:49:49;;;;;;;4.63;2.40;;;;;;;11.65;81.95;101603.00;2041906;29;20047;-71
2022/11/11 01:51:19;;;;;;;8.30;2.65;;;;;;;11.65;81.99;101600.28;2041074;29;20043;-71
2022/11/11 01:52:44;;;;;;;5.18;2.25;;;;;;;11.65;81.84;101613.75;2041073;29;20411;-71
2022/11/11 01:54:12;;;;;;;9.98;2.95;;;;;;;11.58;81.81;101600.53;2036019;29;20050;-71
2022/11/11 01:55:34;;;;;;;7.78;2.78;;;;;;;11.57;82.04;101604.28;2031241;29;20039;-72
2022/11/11 01:57:05;;;;;;;6.95;2.50;;;;;;;11.57;82.04;101601.59;2031953;29;20035;-71
2022/11/11 01:58:27;;;;;;;6.90;2.83;;;;;;;11.51;81.81;101604.53;2037260;29;20035;-71
2022/11/11 01:59:59;;;;;;;10.82;2.60;;;;;;;11.55;82.15;101616.41;2034258;29;20032;-71
2022/11/11 02:01:22;;;;;;;8.35;2.67;;;;;;;11.57;82.29;101614.25;2032754;29;20048;-72
2022/11/11 02:02:45;;;;;;;6.88;2.58;;;;;;;11.57;82.00;101619.66;2039767;29;20036;-71
2022/11/11 02:05:55;;;;;;;8.02;2.65;;;;;;;11.60;82.35;101613.72;2042529;29;20047;-72
2022/11/11 02:07:21;;;;;;;6.40;2.15;;;;;;;11.58;81.89;101627.47;2042593;29;20063;-72
2022/11/11 02:08:44;;;;;;;4.38;2.20;;;;;;;11.53;82.08;101623.91;2042182;29;20035;-72
2022/11/11 02:10:07;;;;;;;7.07;2.70;;;;;;;11.51;81.99;101620.69;2042351;29;20062;-72
2022/11/11 02:14:55;;;;;;;7.07;2.33;;;;;;;11.53;82.58;101619.34;2042281;29;19938;-72
2022/11/11 02:16:18;;;;;;;8.50;2.80;;;;;;;11.55;82.27;101617.19;2042191;29;20051;-71
2022/11/11 02:17:39;;;;;;;10.00;2.35;;;;;;;11.55;82.21;101614.50;2041657;29;20039;-71
2022/11/11 02:19:04;;;;;;;11.80;3.05;;;;;;;11.58;82.60;101622.06;2040970;29;20048;-72
2022/11/11 02:20:30;;;;;;;4.20;2.15;;;;;;;11.63;82.63;101613.19;2041183;29;20051;-71
2022/11/11 02:22:00;;;;;;;10.30;2.70;;;;;;;11.65;82.23;101627.22;2041623;29;20047;-71
2022/11/11 02:23:34;;;;;;;4.43;2.30;;;;;;;11.67;82.52;101619.72;2040972;29;20048;-72
2022/11/11 02:24:57;;;;;;;6.43;2.38;;;;;;;11.64;82.02;101631.00;2040828;29;20032;-72
2022/11/11 02:26:21;;;;;;;8.93;2.60;;;;;;;11.65;82.23;101631.81;2032950;29;20040;-72
2022/11/11 02:27:48;;;;;;;7.75;2.60;;;;;;;11.63;82.26;101629.34;2026220;29;20040;-72
2022/11/11 02:29:13;;;;;;;7.25;2.42;;;;;;;11.64;81.98;101627.50;2020723;29;20052;-72
2022/11/11 02:30:36;;;;;;;4.80;2.22;;;;;;;11.63;81.90;101631.25;2023947;29;20400;-72
2022/11/11 02:31:57;;;;;;;8.90;3.05;;;;;;;11.64;82.18;101632.91;2026574;29;20040;-72
2022/11/11 02:33:21;;;;;;;7.60;2.70;;;;;;;11.63;82.13;101628.56;2036888;29;20550;-72
2022/11/11 02:34:46;;;;;;;6.07;2.60;;;;;;;11.65;82.36;101637.19;2033589;29;20044;-71
2022/11/11 02:36:14;;;;;;;9.10;2.45;;;;;;;11.66;82.56;101636.94;2034472;29;20055;-71
2022/11/11 02:37:37;;;;;;;6.97;2.53;;;;;;;11.62;82.42;101643.09;2033907;29;20035;-72
2022/11/11 02:38:58;;;;;;;7.68;2.50;;;;;;;11.59;82.88;101639.84;2033953;29;20036;-72
2022/11/11 02:40:33;;;;;;;11.80;2.20;;;;;;;11.59;82.76;101641.72;2033678;29;20515;-72
2022/11/11 02:41:57;;;;;;;6.40;2.53;;;;;;;11.59;82.93;101652.50;2037248;29;20059;-71
2022/11/11 02:43:17;;;;;;;7.10;2.72;;;;;;;11.57;83.04;101647.41;2041513;29;20428;-72
2022/11/11 02:44:39;;;;;;;11.25;2.78;;;;;;;11.60;83.48;101641.50;2038312;29;20039;-72
2022/11/11 02:46:01;;;;;;;8.43;3.05;;;;;;;11.64;83.55;101641.78;2035515;29;20040;-72
2022/11/11 02:47:26;;;;;;;6.40;2.20;;;;;;;11.66;83.76;101636.13;2041044;29;20051;-72
2022/11/11 02:48:49;;;;;;;6.00;2.58;;;;;;;11.63;83.67;101640.13;2039886;29;20055;-72
2022/11/11 02:50:13;;;;;;;7.30;2.38;;;;;;;11.59;83.66;101637.16;2032812;29;20539;-72
2022/11/11 02:51:35;;;;;;;10.07;2.75;;;;;;;11.57;83.79;101635.81;2038329;29;20381;-71
2022/11/11 02:52:56;;;;;;;9.43;3.03;;;;;;;11.56;83.99;101636.88;2041382;29;20046;-71
2022/11/11 02:54:19;;;;;;;6.43;2.45;;;;;;;11.54;83.94;101633.63;2040622;29;20040;-71
2022/11/11 02:55:40;;;;;;;3.20;2.30;;;;;;;11.56;84.15;101639.56;2040623;29;20574;-71
2022/11/11 02:57:06;;;;;;;4.35;2.20;;;;;;;11.59;84.41;101639.03;2039572;29;20047;-71
2022/11/11 02:58:30;;;;;;;6.25;2.55;;;;;;;11.60;84.42;101640.66;2041639;29;20040;-71
2022/11/11 02:59:53;;;;;;;5.90;2.10;;;;;;;11.62;84.37;101643.91;2041944;29;20035;-71
2022/11/11 03:01:18;;;;;;;13.40;2.70;;;;;;;11.62;84.12;101638.53;2041980;29;20039;-72
2022/11/11 03:02:42;;;;;;;11.40;2.70;;;;;;;11.63;84.37;101642.84;2042110;29;20051;-71
2022/11/11 03:04:08;;;;;;;7.57;2.42;;;;;;;11.66;84.41;101647.69;2042003;29;20062;-72
2022/11/11 03:05:28;;;;;;;6.88;2.35;;;;;;;11.66;84.23;101642.31;2033780;29;20047;-71
2022/11/11 03:06:49;;;;;;;8.13;2.55;;;;;;;11.63;84.14;101645.53;2033162;29;20048;-71
2022/11/11 03:08:15;;;;;;;9.68;2.63;;;;;;;11.64;84.35;101657.13;2041826;29;20054;-71
2022/11/11 03:09:40;;;;;;;9.95;2.65;;;;;;;11.56;84.31;101661.09;2042186;29;20056;-71
2022/11/11 03:11:05;;;;;;;7.63;2.35;;;;;;;11.54;84.44;101664.06;2041635;29;20051;-71
2022/11/11 03:12:29;;;;;;;11.32;2.78;;;;;;;11.57;84.39;101660.06;2040870;29;20062;-72
2022/11/11 03:13:51;;;;;;;6.43;2.95;;;;;;;11.58;84.59;101664.38;2033849;29;20043;-72
2022/11/11 03:15:13;;;;;;;6.45;2.67;;;;;;;11.57;84.39;101660.06;2033118;29;20051;-72
2022/11/11 03:18:16;;;;;;;10.07;2.45;;;;;;;11.60;84.65;101646.03;2040616;29;20396;-72
2022/11/11 03:19:39;;;;;;;8.95;2.63;;;;;;;11.62;84.63;101643.91;2040838;29;20044;-72
2022/11/11 03:21:06;;;;;;;7.63;2.58;;;;;;;11.64;84.55;101636.38;2040072;29;20052;-72
2022/11/11 03:22:30;;;;;;;6.60;2.50;;;;;;;11.66;84.63;101633.44;2038721;29;20051;-72
2022/11/11 03:23:53;;;;;;;5.93;2.10;;;;;;;11.64;84.61;101635.59;2040843;29;20399;-71
2022/11/11 03:26:59;;;;;;;9.60;2.15;;;;;;;11.60;84.41;101636.09;2040142;29;20405;-72
2022/11/11 03:28:20;;;;;;;8.63;2.45;;;;;;;11.57;84.48;101625.84;2032573;29;20063;-72
2022/11/11 03:29:41;;;;;;;7.45;2.45;;;;;;;11.57;84.47;101625.03;2032183;29;20040;-72
2022/11/11 03:31:03;;;;;;;10.73;2.63;;;;;;;11.58;84.48;101632.03;2040135;29;20062;-72
2022/11/11 03:32:24;;;;;;;4.72;2.13;;;;;;;11.59;84.73;101633.66;2040343;29;20059;-72
2022/11/11 03:33:45;;;;;;;4.57;2.13;;;;;;;11.62;84.57;101627.75;2040258;29;20092;-72
2022/11/11 03:35:09;;;;;;;12.10;3.25;;;;;;;11.65;84.74;101629.13;2037588;29;20059;-72
2022/11/11 03:38:14;;;;;;;5.95;2.20;;;;;;;11.66;84.43;101617.25;2040295;29;20047;-71
2022/11/11 03:38:23;;;;;;;12.43;2.30;;;;;;;11.67;84.35;101618.91;2040799;29;20060;-71
2022/11/11 03:39:43;;;;;;;6.35;2.17;;;;;;;11.70;84.10;101624.59;2040262;29;20479;-72
2022/11/11 03:41:07;;;;;;;8.82;2.60;;;;;;;11.70;83.94;101613.81;2041321;29;20507;-72
2022/11/11 03:42:31;;;;;;;9.73;2.67;;;;;;;11.72;84.06;101618.91;2040907;29;20055;-72
2022/11/11 03:43:52;;;;;;;6.50;2.10;;;;;;;11.72;83.64;101621.63;2041838;29;20048;-72
2022/11/11 03:45:16;;;;;;;8.98;2.53;;;;;;;11.71;83.82;101615.41;2041907;29;20067;-73
2022/11/11 03:46:36;;;;;;;6.40;2.35;;;;;;;11.69;83.58;101622.94;2041334;29;20052;-72
2022/11/11 03:48:00;;;;;;;9.80;2.30;;;;;;;11.69;83.46;101620.25;2035928;29;20040;-72
2022/11/11 03:49:20;;;;;;;13.73;2.42;;;;;;;11.69;83.61;101620.25;2041424;29;20056;-73
2022/11/11 03:50:41;;;;;;;4.85;1.98;;;;;;;11.69;83.33;101617.56;2041514;29;20044;-72
2022/11/11 03:52:02;;;;;;;8.68;2.13;;;;;;;11.72;83.47;101633.19;2041304;29;20047;-72
2022/11/11 03:53:24;;;;;;;6.35;2.25;;;;;;;11.72;83.74;101627.81;2041757;29;20475;-72
2022/11/11 03:54:47;;;;;;;9.10;2.47;;;;;;;11.75;83.33;101621.09;2033269;29;20040;-72
2022/11/11 03:56:16;;;;;;;9.95;2.70;;;;;;;11.75;83.51;101629.97;2039093;29;20051;-73
2022/11/11 03:57:41;;;;;;;11.68;3.63;;;;;;;11.76;83.45;101623.53;2040911;29;20499;-72
2022/11/11 03:59:04;;;;;;;12.27;2.90;;;;;;;11.76;83.30;101634.31;2041726;29;20055;-73
2022/11/11 04:00:29;;;;;;;8.95;3.13;;;;;;;11.73;83.38;101632.16;2041516;29;20055;-73
2022/11/11 04:10:24;;;;;;;6.38;2.80;;;;;;;11.64;82.98;101620.22;2040634;29;20052;-73
2022/11/11 04:11:47;;;;;;;10.63;2.97;;;;;;;11.63;83.42;101612.41;2040095;29;20041;-73
2022/11/11 04:16:30;;;;;;;7.55;3.03;;;;;;;11.59;83.51;101606.72;2041625;29;20040;-71
2022/11/11 04:17:53;;;;;;;10.32;2.72;;;;;;;11.60;83.33;101602.94;2041726;29;20031;-72
2022/11/11 04:22:42;;;;;;;8.32;2.85;;;;;;;11.55;83.68;101601.03;2041125;29;20051;-72
2022/11/11 04:25:47;;;;;;;10.93;3.80;;;;;;;11.51;83.46;101599.94;2036754;29;20039;-72
2022/11/11 04:25:49;;;;;;;6.65;3.33;;;;;;;11.46;83.18;101601.78;2026243;29;20407;-73
2022/11/11 04:27:14;;;;;;;10.65;3.50;;;;;;;11.45;83.60;101608.25;2037115;29;20047;-72
2022/11/11 04:30:17;;;;;;;6.05;2.85;;;;;;;11.43;83.80;101596.91;2038082;29;20046;-72
2022/11/11 04:33:39;;;;;;;6.68;3.13;;;;;;;11.43;83.81;101580.75;2019972;29;20044;-72
2022/11/11 04:35:04;;;;;;;7.55;2.88;;;;;;;11.42;83.77;101574.56;2032766;29;20040;-73
2022/11/11 04:36:24;;;;;;;9.10;3.20;;;;;;;11.41;83.85;101577.50;2031162;29;20032;-71
2022/11/11 04:37:49;;;;;;;6.88;3.08;;;;;;;11.42;84.25;101579.16;2031321;29;20048;-72
2022/11/11 04:41:05;;;;;;;11.68;3.13;;;;;;;11.43;84.13;101588.84;2031287;29;20036;-73
2022/11/11 04:42:25;;;;;;;11.77;3.00;;;;;;;11.43;83.90;101586.94;2022470;29;20071;-72
2022/11/11 04:45:32;;;;;;;11.65;3.72;;;;;;;11.44;84.07;101587.75;2030161;29;20044;-73
2022/11/11 04:46:53;;;;;;;15.05;3.15;;;;;;;11.40;83.97;101586.66;2033297;29;20039;-73
2022/11/11 04:48:17;;;;;;;4.40;2.50;;;;;;;11.40;84.01;101581.28;2038825;29;20546;-71
2022/11/11 04:49:51;;;;;;;16.67;3.30;;;;;;;11.39;84.26;101579.66;2036621;29;20048;-71
2022/11/11 04:51:17;;;;;;;10.68;3.40;;;;;;;11.35;84.02;101585.56;2038135;29;20554;-71
2022/11/11 04:52:45;;;;;;;10.15;3.60;;;;;;;11.40;84.33;101581.28;2037645;29;20031;-71
2022/11/11 04:54:09;;;;;;;6.85;2.63;;;;;;;11.41;84.28;101578.31;2038139;29;20051;-71
2022/11/11 04:57:11;;;;;;;8.73;2.75;;;;;;;11.45;84.33;101573.25;2038883;29;20456;-71
2022/11/11 04:58:34;;;;;;;10.55;2.70;;;;;;;11.46;84.42;101569.47;2038294;29;20067;-71
2022/11/11 04:59:57;;;;;;;15.18;2.92;;;;;;;11.47;84.24;101579.16;2038334;29;20043;-71
2022/11/11 05:03:17;;;;;;;6.30;2.60;;;;;;;11.48;84.28;101576.22;2038489;29;20084;-70
2022/11/11 05:04:43;;;;;;;9.60;2.88;;;;;;;11.47;84.22;101576.47;2038544;29;20070;-71
2022/11/11 05:09:46;;;;;;;5.05;2.83;;;;;;;11.48;84.22;101576.22;2022585;29;20044;-73
2022/11/11 05:11:07;;;;;;;8.23;2.83;;;;;;;11.48;84.04;101572.72;2032311;29;20063;-72
2022/11/11 05:12:28;;;;;;;7.68;2.90;;;;;;;11.49;83.87;101575.16;2038768;29;20036;-71
2022/11/11 05:22:12;;;;;;;8.52;3.05;;;;;;;11.51;83.86;101581.09;2041730;29;20052;-73
2022/11/11 05:25:29;;;;;;;9.23;2.33;;;;;;;11.52;83.91;101588.09;2041667;29;20040;-71
2022/11/11 05:26:49;;;;;;;4.55;2.50;;;;;;;11.53;83.67;101583.50;2049049;29;20039;-71
2022/11/11 05:28:10;;;;;;;5.43;2.58;;;;;;;11.55;83.96;101589.47;2039768;29;20438;-71
2022/11/11 05:29:34;;;;;;;6.72;2.40;;;;;;;11.55;83.77;101584.06;2027641;29;20044;-72
2022/11/11 05:30:55;;;;;;;11.07;2.50;;;;;;;11.53;83.68;101583.50;2033243;29;20515;-72
2022/11/11 05:32:20;;;;;;;8.27;2.58;;;;;;;11.53;83.45;101587.00;2040523;29;20039;-71
2022/11/11 05:33:41;;;;;;;6.10;2.38;;;;;;;11.53;83.68;101580.81;2040120;29;20048;-72
2022/11/11 05:35:03;;;;;;;11.65;2.70;;;;;;;11.53;83.64;101581.63;2040483;29;20761;-72
2022/11/11 05:36:24;;;;;;;9.85;2.88;;;;;;;11.53;83.78;101581.63;2040716;29;20048;-72
2022/11/11 05:38:19;;;;;;;7.80;2.35;;;;;;;11.53;83.52;101580.81;2040605;29;20062;-71
2022/11/11 05:39:30;;;;;;;13.27;2.60;;;;;;;11.55;83.54;101582.19;2040024;29;20062;-71
2022/11/11 05:40:51;;;;;;;11.70;2.55;;;;;;;11.55;83.26;101584.06;2042837;29;20050;-71
2022/11/11 05:42:14;;;;;;;12.45;2.55;;;;;;;11.54;83.38;101590.53;2043488;29;20047;-70
2022/11/11 05:43:35;;;;;;;4.63;2.33;;;;;;;11.53;83.36;101586.19;2039390;29;20057;-71
2022/11/11 05:44:59;;;;;;;10.02;2.45;;;;;;;11.53;83.31;101586.19;2039961;29;20051;-72
2022/11/11 05:46:22;;;;;;;8.23;2.50;;;;;;;11.49;83.56;101583.22;2040579;29;20059;-72
2022/11/11 05:47:43;;;;;;;9.07;2.72;;;;;;;11.49;83.45;101579.72;2040026;29;20042;-71
2022/11/11 05:49:14;;;;;;;8.40;2.28;;;;;;;11.51;83.35;101581.09;2040537;29;20463;-71
2022/11/11 05:50:41;;;;;;;8.27;2.50;;;;;;;11.52;83.23;101580.00;2039938;29;20510;-72
2022/11/11 05:52:03;;;;;;;13.57;2.72;;;;;;;11.54;83.28;101582.47;2040484;29;20063;-72
2022/11/11 05:53:29;;;;;;;10.80;2.40;;;;;;;11.54;83.25;101571.69;2039844;29;20039;-72
2022/11/11 05:54:50;;;;;;;7.32;2.50;;;;;;;11.54;83.15;101582.47;2040587;29;20074;-72
2022/11/11 05:56:10;;;;;;;6.93;2.42;;;;;;;11.54;83.26;101571.69;2039975;29;20702;-72
2022/11/11 05:57:32;;;;;;;6.55;2.25;;;;;;;11.54;83.24;101571.69;2037082;29;20588;-72
2022/11/11 05:58:53;;;;;;;9.07;2.53;;;;;;;11.55;83.01;101567.91;2039917;29;20056;-71
2022/11/11 06:00:14;;;;;;;4.78;2.00;;;;;;;11.54;83.02;101571.69;2040660;29;20035;-71
2022/11/11 06:01:36;;;;;;;9.30;2.83;;;;;;;11.55;83.15;101578.69;2041104;29;20035;-72
2022/11/11 06:03:07;;;;;;;8.57;2.70;;;;;;;11.55;83.01;101579.50;2041244;29;20510;-72
2022/11/11 06:04:34;;;;;;;7.07;2.38;;;;;;;11.52;82.65;101580.00;2040561;29;20050;-71
2022/11/11 06:05:56;;;;;;;6.93;2.17;;;;;;;11.51;82.78;101589.16;2028044;29;20040;-72
2022/11/11 06:07:17;;;;;;;10.50;3.50;;;;;;;11.53;82.72;101589.69;2032826;29;20031;-72
2022/11/11 06:08:40;;;;;;;4.72;2.28;;;;;;;11.56;82.68;101585.69;2040632;29;20051;-72
2022/11/11 06:10:29;;;;;;;8.35;2.28;;;;;;;11.56;82.89;101586.50;2027576;29;20044;-72
2022/11/11 06:11:42;;;;;;;13.45;2.53;;;;;;;11.58;82.70;101599.72;2038026;29;20035;-72
2022/11/11 06:13:13;;;;;;;11.00;2.20;;;;;;;11.58;82.72;101599.72;2035215;29;20052;-73
2022/11/11 06:14:37;;;;;;;13.15;2.20;;;;;;;11.60;82.71;101594.84;2039824;29;20036;-74
2022/11/11 06:16:01;;;;;;;14.32;3.40;;;;;;;11.62;82.64;101600.00;2037027;29;20043;-76
2022/11/11 06:17:24;;;;;;;8.95;2.60;;;;;;;11.63;82.56;101601.63;2032622;29;20040;-74
2022/11/11 06:18:47;;;;;;;6.65;2.50;;;;;;;11.63;82.55;101597.03;2032612;29;20032;-74
2022/11/11 06:20:12;;;;;;;4.82;2.25;;;;;;;11.64;82.35;101597.88;2036233;29;20445;-77
2022/11/11 06:21:55;;;;;;;8.20;2.95;;;;;;;11.63;82.61;101599.72;2032212;29;20039;-75
2022/11/11 06:23:20;;;;;;;8.07;2.30;;;;;;;11.65;82.42;101608.38;2033936;29;20472;-76
2022/11/11 06:26:11;;;;;;;6.93;2.35;;;;;;;11.63;82.39;101615.88;2040728;29;20046;-74
2022/11/11 06:26:28;;;;;;;8.45;2.35;;;;;;;11.62;82.25;101616.97;2039441;29;20044;-75
2022/11/11 06:27:49;;;;;;;8.15;2.30;;;;;;;11.63;82.28;101618.59;2039421;29;20247;-75
2022/11/11 06:29:12;;;;;;;9.32;2.70;;;;;;;11.65;82.47;101627.22;2037867;29;20074;-75
2022/11/11 06:30:39;;;;;;;6.82;2.38;;;;;;;11.66;82.41;101626.16;2039681;29;20052;-75
2022/11/11 06:32:01;;;;;;;12.27;2.75;;;;;;;11.66;82.28;101626.16;2040211;29;20056;-75
2022/11/11 06:33:23;;;;;;;5.65;2.58;;;;;;;11.65;82.27;101626.44;2040285;29;20059;-74
2022/11/11 06:34:44;;;;;;;8.80;2.00;;;;;;;11.65;82.40;101627.22;2046983;29;20415;-75
2022/11/11 06:36:05;;;;;;;9.70;2.63;;;;;;;11.65;82.29;101629.94;2039359;29;20620;-75
2022/11/11 06:37:29;;;;;;;9.15;2.63;;;;;;;11.66;82.42;101630.72;2039500;29;20046;-75
2022/11/11 06:38:49;;;;;;;6.28;2.40;;;;;;;11.66;82.19;101639.63;2031618;29;20044;-76
2022/11/11 06:40:15;;;;;;;8.98;2.15;;;;;;;11.67;82.30;101629.69;2031854;29;20047;-74
2022/11/11 06:41:41;;;;;;;7.72;2.25;;;;;;;11.67;82.38;101635.88;2040409;29;20047;-77
2022/11/11 06:43:05;;;;;;;8.68;2.40;;;;;;;11.69;82.36;101633.72;2032400;29;20064;-75
2022/11/11 06:44:26;;;;;;;5.90;2.15;;;;;;;11.69;82.38;101632.91;2026309;29;20048;-76
2022/11/11 06:45:50;;;;;;;8.73;2.50;;;;;;;11.69;82.26;101633.72;2027199;29;20033;-76
2022/11/11 06:47:11;;;;;;;10.40;3.03;;;;;;;11.69;82.25;101641.00;2038022;29;20750;-80
2022/11/11 06:48:31;;;;;;;9.75;2.58;;;;;;;11.70;82.48;101637.25;2032342;29;20404;-76
2022/11/11 06:49:53;;;;;;;6.93;2.30;;;;;;;11.69;82.45;101644.50;2027214;29;20045;-76
2022/11/11 06:51:19;;;;;;;6.60;2.10;;;;;;;11.70;82.56;101645.31;2032637;29;20404;-77
2022/11/11 06:52:39;;;;;;;6.45;2.45;;;;;;;11.71;82.56;101646.94;2033096;29;20043;-76
2022/11/11 06:54:01;;;;;;;5.53;1.95;;;;;;;11.71;82.47;101646.94;2033011;29;20562;-76
2022/11/11 06:55:23;;;;;;;7.75;2.33;;;;;;;11.71;82.64;101650.44;2031983;29;20040;-76
2022/11/11 06:56:48;;;;;;;10.80;2.33;;;;;;;11.72;82.54;101648.56;2031845;29;20040;-75
2022/11/11 06:58:15;;;;;;;11.60;2.60;;;;;;;11.73;82.50;101650.19;2032382;29;20047;-77
2022/11/11 06:59:38;;;;;;;6.57;2.25;;;;;;;11.72;82.38;101641.28;2030732;29;20040;-73
2022/11/11 07:01:06;;;;;;;6.60;2.33;;;;;;;11.73;82.59;101656.41;2037347;29;20036;-71
2022/11/11 07:02:29;;;;;;;7.13;2.35;;;;;;;11.72;82.46;101649.38;2039431;29;20044;-78
2022/11/11 07:03:55;;;;;;;11.52;3.00;;;;;;;11.74;82.79;101646.41;2031421;29;20044;-73
2022/11/11 07:05:21;;;;;;;7.15;2.33;;;;;;;11.75;82.79;101646.16;2034359;29;20047;-76
2022/11/11 07:06:42;;;;;;;12.10;3.22;;;;;;;11.75;82.97;101646.16;2034238;29;20385;-71
2022/11/11 07:08:06;;;;;;;9.07;2.70;;;;;;;11.79;82.95;101643.75;2032623;29;20605;-72
2022/11/11 07:09:31;;;;;;;8.48;2.15;;;;;;;11.78;82.81;101636.75;2032844;29;20047;-72
2022/11/11 07:10:52;;;;;;;5.53;2.38;;;;;;;11.78;82.57;101640.25;2032266;29;20151;-73
2022/11/11 07:12:13;;;;;;;6.90;2.50;;;;;;;11.80;82.73;101640.81;2033214;29;20063;-72
2022/11/11 07:13:34;;;;;;;9.63;2.88;;;;;;;11.81;82.75;101641.63;2040686;29;20054;-73
2022/11/11 07:14:58;;;;;;;9.35;2.78;;;;;;;11.81;82.34;101642.41;2039340;29;20040;-73
2022/11/11 07:16:19;;;;;;;6.72;2.40;;;;;;;11.84;82.42;101641.09;2040481;29;20051;-73
2022/11/11 07:17:42;;;;;;;7.57;2.38;;;;;;;11.85;82.80;101640.03;2040637;29;20047;-74
2022/11/11 07:19:08;;;;;;;6.50;2.35;;;;;;;11.86;82.67;101646.28;2048268;29;20039;-81
2022/11/11 07:20:28;;;;;;;9.90;2.67;;;;;;;11.89;82.68;101651.94;2043218;29;20120;-75
2022/11/11 07:21:49;;;;;;;8.50;2.65;;;;;;;11.94;82.15;101651.16;2040425;29;20039;-75
2022/11/11 07:23:10;;;;;;;6.05;2.70;;;;;;;11.97;82.44;101656.81;2036741;29;20043;-75
2022/11/11 07:24:32;;;;;;;10.38;2.80;;;;;;;12.01;82.68;101662.50;2031714;29;20469;-75
2022/11/11 07:25:54;;;;;;;8.32;2.72;;;;;;;12.03;82.46;101663.88;2036211;29;20040;-75
2022/11/11 07:27:15;;;;;;;9.52;2.38;;;;;;;12.06;82.10;101665.25;2032005;29;20110;-75
2022/11/11 07:28:38;;;;;;;12.70;2.78;;;;;;;12.08;82.33;101663.09;2031154;29;20044;-75
2022/11/11 07:30:00;;;;;;;9.60;2.50;;;;;;;12.12;82.10;101669.59;2031260;29;20040;-76
2022/11/11 07:31:20;;;;;;;6.60;2.50;;;;;;;12.16;82.48;101667.97;2032234;29;20036;-75
2022/11/11 07:32:49;;;;;;;11.60;2.60;;;;;;;12.18;81.77;101671.25;2032673;29;20437;-75
2022/11/11 07:34:12;;;;;;;5.55;2.30;;;;;;;12.17;81.58;101669.63;2031940;29;20051;-75